sensor_id;sensor_type;location;lat;lon;timestamp;P1;P2;P0
30342;PMS5003;17145;49.902;8.680;2024-03-07T00:00:19;51;36;
30342;PMS5003;17145;49.902;8.680;2024-03-07T00:02:47;48;35;
30342;PMS5003;17145;49.902;8.680;2024-03-07T00:05:15;39;35;
30342;PMS5003;17145;49.902;8.680;2024-03-07T00:07:43;49;38;
30342;PMS5003;17145;49.902;8.680;2024-03-07T00:10:11;48;40;
30342;PMS5003;17145;49.902;8.680;2024-03-07T00:12:39;40;36;
30342;PMS5003;17145;49.902;8.680;2024-03-07T00:15:07;49;36;
30342;PMS5003;17145;49.902;8.680;2024-03-07T00:17:36;57;37;
30342;PMS5003;17145;49.902;8.680;2024-03-07T00:20:04;43;32;
30342;PMS5003;17145;49.902;8.680;2024-03-07T00:22:33;48;32;
30342;PMS5003;17145;49.902;8.680;2024-03-07T00:25:00;51;35;
30342;PMS5003;17145;49.902;8.680;2024-03-07T00:27:28;48;32;
30342;PMS5003;17145;49.902;8.680;2024-03-07T00:29:55;52;38;
30342;PMS5003;17145;49.902;8.680;2024-03-07T00:32:23;46;35;
30342;PMS5003;17145;49.902;8.680;2024-03-07T00:34:50;54;37;
30342;PMS5003;17145;49.902;8.680;2024-03-07T00:37:18;58;38;
30342;PMS5003;17145;49.902;8.680;2024-03-07T00:39:45;50;37;
30342;PMS5003;17145;49.902;8.680;2024-03-07T00:42:12;43;37;
30342;PMS5003;17145;49.902;8.680;2024-03-07T00:44:40;45;38;
30342;PMS5003;17145;49.902;8.680;2024-03-07T00:47:08;46;38;
30342;PMS5003;17145;49.902;8.680;2024-03-07T00:49:37;52;41;
30342;PMS5003;17145;49.902;8.680;2024-03-07T00:52:04;48;33;
30342;PMS5003;17145;49.902;8.680;2024-03-07T00:54:32;37;33;
30342;PMS5003;17145;49.902;8.680;2024-03-07T00:56:59;42;36;
30342;PMS5003;17145;49.902;8.680;2024-03-07T00:59:26;59;42;
30342;PMS5003;17145;49.902;8.680;2024-03-07T01:01:54;53;36;
30342;PMS5003;17145;49.902;8.680;2024-03-07T01:04:21;48;30;
30342;PMS5003;17145;49.902;8.680;2024-03-07T01:06:48;44;36;
30342;PMS5003;17145;49.902;8.680;2024-03-07T01:09:17;51;37;
30342;PMS5003;17145;49.902;8.680;2024-03-07T01:11:44;41;35;
30342;PMS5003;17145;49.902;8.680;2024-03-07T01:14:11;44;33;
30342;PMS5003;17145;49.902;8.680;2024-03-07T01:16:39;41;30;
30342;PMS5003;17145;49.902;8.680;2024-03-07T01:19:06;60;37;
30342;PMS5003;17145;49.902;8.680;2024-03-07T01:21:34;53;32;
30342;PMS5003;17145;49.902;8.680;2024-03-07T01:24:01;47;37;
30342;PMS5003;17145;49.902;8.680;2024-03-07T01:26:29;42;33;
30342;PMS5003;17145;49.902;8.680;2024-03-07T01:28:57;41;35;
30342;PMS5003;17145;49.902;8.680;2024-03-07T01:31:24;43;34;
30342;PMS5003;17145;49.902;8.680;2024-03-07T01:33:52;36;33;
30342;PMS5003;17145;49.902;8.680;2024-03-07T01:36:19;54;35;
30342;PMS5003;17145;49.902;8.680;2024-03-07T01:38:47;44;33;
30342;PMS5003;17145;49.902;8.680;2024-03-07T01:41:14;54;37;
30342;PMS5003;17145;49.902;8.680;2024-03-07T01:43:42;56;35;
30342;PMS5003;17145;49.902;8.680;2024-03-07T01:46:10;39;36;
30342;PMS5003;17145;49.902;8.680;2024-03-07T01:48:37;51;31;
30342;PMS5003;17145;49.902;8.680;2024-03-07T01:51:05;48;33;
30342;PMS5003;17145;49.902;8.680;2024-03-07T01:53:33;50;41;
30342;PMS5003;17145;49.902;8.680;2024-03-07T01:56:02;39;34;
30342;PMS5003;17145;49.902;8.680;2024-03-07T01:58:31;53;33;
30342;PMS5003;17145;49.902;8.680;2024-03-07T02:00:59;36;33;
30342;PMS5003;17145;49.902;8.680;2024-03-07T02:03:30;48;36;
30342;PMS5003;17145;49.902;8.680;2024-03-07T02:05:58;38;32;
30342;PMS5003;17145;49.902;8.680;2024-03-07T02:08:25;48;33;
30342;PMS5003;17145;49.902;8.680;2024-03-07T02:10:52;38;31;
30342;PMS5003;17145;49.902;8.680;2024-03-07T02:13:20;42;35;
30342;PMS5003;17145;49.902;8.680;2024-03-07T02:15:47;43;33;
30342;PMS5003;17145;49.902;8.680;2024-03-07T02:18:15;43;38;
30342;PMS5003;17145;49.902;8.680;2024-03-07T02:20:42;37;32;
30342;PMS5003;17145;49.902;8.680;2024-03-07T02:23:10;36;30;
30342;PMS5003;17145;49.902;8.680;2024-03-07T02:25:37;45;36;
30342;PMS5003;17145;49.902;8.680;2024-03-07T02:28:05;45;35;
30342;PMS5003;17145;49.902;8.680;2024-03-07T02:30:32;33;30;
30342;PMS5003;17145;49.902;8.680;2024-03-07T02:33:00;37;32;
30342;PMS5003;17145;49.902;8.680;2024-03-07T02:35:27;37;32;
30342;PMS5003;17145;49.902;8.680;2024-03-07T02:37:54;55;35;
30342;PMS5003;17145;49.902;8.680;2024-03-07T02:40:22;48;36;
30342;PMS5003;17145;49.902;8.680;2024-03-07T02:42:49;44;32;
30342;PMS5003;17145;49.902;8.680;2024-03-07T02:45:17;36;31;
30342;PMS5003;17145;49.902;8.680;2024-03-07T02:47:44;54;37;
30342;PMS5003;17145;49.902;8.680;2024-03-07T02:50:11;48;33;
30342;PMS5003;17145;49.902;8.680;2024-03-07T02:52:39;49;35;
30342;PMS5003;17145;49.902;8.680;2024-03-07T02:55:07;42;35;
30342;PMS5003;17145;49.902;8.680;2024-03-07T02:57:34;45;38;
30342;PMS5003;17145;49.902;8.680;2024-03-07T03:00:02;53;34;
30342;PMS5003;17145;49.902;8.680;2024-03-07T03:02:29;39;36;
30342;PMS5003;17145;49.902;8.680;2024-03-07T03:04:57;39;33;
30342;PMS5003;17145;49.902;8.680;2024-03-07T03:07:24;48;37;
30342;PMS5003;17145;49.902;8.680;2024-03-07T03:09:51;44;31;
30342;PMS5003;17145;49.902;8.680;2024-03-07T03:12:19;54;32;
30342;PMS5003;17145;49.902;8.680;2024-03-07T03:14:46;46;32;
30342;PMS5003;17145;49.902;8.680;2024-03-07T03:17:14;46;34;
30342;PMS5003;17145;49.902;8.680;2024-03-07T03:19:41;37;32;
30342;PMS5003;17145;49.902;8.680;2024-03-07T03:22:08;37;35;
30342;PMS5003;17145;49.902;8.680;2024-03-07T03:24:36;44;33;
30342;PMS5003;17145;49.902;8.680;2024-03-07T03:27:03;43;32;
30342;PMS5003;17145;49.902;8.680;2024-03-07T03:29:30;49;30;
30342;PMS5003;17145;49.902;8.680;2024-03-07T03:31:58;46;31;
30342;PMS5003;17145;49.902;8.680;2024-03-07T03:34:26;48;31;
30342;PMS5003;17145;49.902;8.680;2024-03-07T03:36:56;38;31;
30342;PMS5003;17145;49.902;8.680;2024-03-07T03:39:24;42;30;
30342;PMS5003;17145;49.902;8.680;2024-03-07T03:41:51;47;31;
30342;PMS5003;17145;49.902;8.680;2024-03-07T03:44:18;35;32;
30342;PMS5003;17145;49.902;8.680;2024-03-07T03:46:46;32;26;
30342;PMS5003;17145;49.902;8.680;2024-03-07T03:49:13;40;26;
30342;PMS5003;17145;49.902;8.680;2024-03-07T03:51:40;42;29;
30342;PMS5003;17145;49.902;8.680;2024-03-07T03:54:08;32;29;
30342;PMS5003;17145;49.902;8.680;2024-03-07T03:56:35;30;29;
30342;PMS5003;17145;49.902;8.680;2024-03-07T03:59:03;34;27;
30342;PMS5003;17145;49.902;8.680;2024-03-07T04:01:30;29;28;
30342;PMS5003;17145;49.902;8.680;2024-03-07T04:03:57;32;26;
30342;PMS5003;17145;49.902;8.680;2024-03-07T04:06:25;35;26;
30342;PMS5003;17145;49.902;8.680;2024-03-07T04:08:52;31;26;
30342;PMS5003;17145;49.902;8.680;2024-03-07T04:11:20;32;31;
30342;PMS5003;17145;49.902;8.680;2024-03-07T04:13:49;38;29;
30342;PMS5003;17145;49.902;8.680;2024-03-07T04:16:17;35;31;
30342;PMS5003;17145;49.902;8.680;2024-03-07T04:18:44;38;28;
30342;PMS5003;17145;49.902;8.680;2024-03-07T04:21:11;41;30;
30342;PMS5003;17145;49.902;8.680;2024-03-07T04:23:39;56;34;
30342;PMS5003;17145;49.902;8.680;2024-03-07T04:26:07;37;31;
30342;PMS5003;17145;49.902;8.680;2024-03-07T04:28:34;29;28;
30342;PMS5003;17145;49.902;8.680;2024-03-07T04:31:02;40;29;
30342;PMS5003;17145;49.902;8.680;2024-03-07T04:33:29;38;26;
30342;PMS5003;17145;49.902;8.680;2024-03-07T04:35:57;41;31;
30342;PMS5003;17145;49.902;8.680;2024-03-07T04:38:24;36;30;
30342;PMS5003;17145;49.902;8.680;2024-03-07T04:40:54;35;29;
30342;PMS5003;17145;49.902;8.680;2024-03-07T04:43:22;46;35;
30342;PMS5003;17145;49.902;8.680;2024-03-07T04:45:49;47;32;
30342;PMS5003;17145;49.902;8.680;2024-03-07T04:48:16;47;30;
30342;PMS5003;17145;49.902;8.680;2024-03-07T04:50:44;31;29;
30342;PMS5003;17145;49.902;8.680;2024-03-07T04:53:12;38;30;
30342;PMS5003;17145;49.902;8.680;2024-03-07T04:55:39;34;31;
30342;PMS5003;17145;49.902;8.680;2024-03-07T04:58:06;50;29;
30342;PMS5003;17145;49.902;8.680;2024-03-07T05:00:34;46;29;
30342;PMS5003;17145;49.902;8.680;2024-03-07T05:03:01;41;31;
30342;PMS5003;17145;49.902;8.680;2024-03-07T05:05:29;32;31;
30342;PMS5003;17145;49.902;8.680;2024-03-07T05:07:56;53;31;
30342;PMS5003;17145;49.902;8.680;2024-03-07T05:10:23;45;28;
30342;PMS5003;17145;49.902;8.680;2024-03-07T05:12:50;43;31;
30342;PMS5003;17145;49.902;8.680;2024-03-07T05:15:18;46;31;
30342;PMS5003;17145;49.902;8.680;2024-03-07T05:17:45;41;32;
30342;PMS5003;17145;49.902;8.680;2024-03-07T05:20:13;46;32;
30342;PMS5003;17145;49.902;8.680;2024-03-07T05:22:40;43;36;
30342;PMS5003;17145;49.902;8.680;2024-03-07T05:25:08;34;26;
30342;PMS5003;17145;49.902;8.680;2024-03-07T05:27:35;53;36;
30342;PMS5003;17145;49.902;8.680;2024-03-07T05:30:03;34;25;
30342;PMS5003;17145;49.902;8.680;2024-03-07T05:32:30;51;32;
30342;PMS5003;17145;49.902;8.680;2024-03-07T05:34:58;37;36;
30342;PMS5003;17145;49.902;8.680;2024-03-07T05:37:25;40;33;
30342;PMS5003;17145;49.902;8.680;2024-03-07T05:39:52;55;34;
30342;PMS5003;17145;49.902;8.680;2024-03-07T05:42:20;39;33;
30342;PMS5003;17145;49.902;8.680;2024-03-07T05:44:47;39;34;
30342;PMS5003;17145;49.902;8.680;2024-03-07T05:47:14;47;34;
30342;PMS5003;17145;49.902;8.680;2024-03-07T05:49:42;38;31;
30342;PMS5003;17145;49.902;8.680;2024-03-07T05:52:10;52;35;
30342;PMS5003;17145;49.902;8.680;2024-03-07T05:54:37;47;36;
30342;PMS5003;17145;49.902;8.680;2024-03-07T05:57:05;57;31;
30342;PMS5003;17145;49.902;8.680;2024-03-07T05:59:32;41;37;
30342;PMS5003;17145;49.902;8.680;2024-03-07T06:01:59;36;30;
30342;PMS5003;17145;49.902;8.680;2024-03-07T06:04:27;33;31;
30342;PMS5003;17145;49.902;8.680;2024-03-07T06:06:55;39;32;
30342;PMS5003;17145;49.902;8.680;2024-03-07T06:09:22;38;30;
30342;PMS5003;17145;49.902;8.680;2024-03-07T06:11:49;41;30;
30342;PMS5003;17145;49.902;8.680;2024-03-07T06:14:16;40;32;
30342;PMS5003;17145;49.902;8.680;2024-03-07T06:16:44;39;33;
30342;PMS5003;17145;49.902;8.680;2024-03-07T06:19:11;45;28;
30342;PMS5003;17145;49.902;8.680;2024-03-07T06:21:39;38;33;
30342;PMS5003;17145;49.902;8.680;2024-03-07T06:24:07;39;34;
30342;PMS5003;17145;49.902;8.680;2024-03-07T06:26:35;35;34;
30342;PMS5003;17145;49.902;8.680;2024-03-07T06:29:03;35;27;
30342;PMS5003;17145;49.902;8.680;2024-03-07T06:31:31;27;25;
30342;PMS5003;17145;49.902;8.680;2024-03-07T06:33:58;48;37;
30342;PMS5003;17145;49.902;8.680;2024-03-07T06:36:26;46;32;
30342;PMS5003;17145;49.902;8.680;2024-03-07T06:38:53;34;29;
30342;PMS5003;17145;49.902;8.680;2024-03-07T06:41:21;34;30;
30342;PMS5003;17145;49.902;8.680;2024-03-07T06:43:49;43;30;
30342;PMS5003;17145;49.902;8.680;2024-03-07T06:46:16;34;30;
30342;PMS5003;17145;49.902;8.680;2024-03-07T06:48:43;40;38;
30342;PMS5003;17145;49.902;8.680;2024-03-07T06:51:11;46;35;
30342;PMS5003;17145;49.902;8.680;2024-03-07T06:53:38;45;41;
30342;PMS5003;17145;49.902;8.680;2024-03-07T06:56:06;24;23;
30342;PMS5003;17145;49.902;8.680;2024-03-07T06:58:33;29;27;
30342;PMS5003;17145;49.902;8.680;2024-03-07T07:01:00;39;28;
30342;PMS5003;17145;49.902;8.680;2024-03-07T07:03:28;37;25;
30342;PMS5003;17145;49.902;8.680;2024-03-07T07:05:55;35;30;
30342;PMS5003;17145;49.902;8.680;2024-03-07T07:08:23;25;22;
30342;PMS5003;17145;49.902;8.680;2024-03-07T07:10:50;38;28;
30342;PMS5003;17145;49.902;8.680;2024-03-07T07:13:18;45;26;
30342;PMS5003;17145;49.902;8.680;2024-03-07T07:15:45;37;25;
30342;PMS5003;17145;49.902;8.680;2024-03-07T07:18:12;41;36;
30342;PMS5003;17145;49.902;8.680;2024-03-07T07:20:40;39;32;
30342;PMS5003;17145;49.902;8.680;2024-03-07T07:23:08;44;43;
30342;PMS5003;17145;49.902;8.680;2024-03-07T07:25:36;38;30;
30342;PMS5003;17145;49.902;8.680;2024-03-07T07:28:03;24;23;
30342;PMS5003;17145;49.902;8.680;2024-03-07T07:30:31;39;35;
30342;PMS5003;17145;49.902;8.680;2024-03-07T07:32:59;23;21;
30342;PMS5003;17145;49.902;8.680;2024-03-07T07:35:26;25;24;
30342;PMS5003;17145;49.902;8.680;2024-03-07T07:37:53;28;24;
30342;PMS5003;17145;49.902;8.680;2024-03-07T07:40:21;28;25;
30342;PMS5003;17145;49.902;8.680;2024-03-07T07:42:50;51;35;
30342;PMS5003;17145;49.902;8.680;2024-03-07T07:45:20;39;28;
30342;PMS5003;17145;49.902;8.680;2024-03-07T07:47:48;48;28;
30342;PMS5003;17145;49.902;8.680;2024-03-07T07:50:17;29;24;
30342;PMS5003;17145;49.902;8.680;2024-03-07T07:52:46;27;25;
30342;PMS5003;17145;49.902;8.680;2024-03-07T07:55:15;32;29;
30342;PMS5003;17145;49.902;8.680;2024-03-07T07:57:43;30;29;
30342;PMS5003;17145;49.902;8.680;2024-03-07T08:00:12;25;23;
30342;PMS5003;17145;49.902;8.680;2024-03-07T08:02:40;38;28;
30342;PMS5003;17145;49.902;8.680;2024-03-07T08:05:08;43;28;
30342;PMS5003;17145;49.902;8.680;2024-03-07T08:07:35;28;22;
30342;PMS5003;17145;49.902;8.680;2024-03-07T08:10:05;32;21;
30342;PMS5003;17145;49.902;8.680;2024-03-07T08:12:33;36;22;
30342;PMS5003;17145;49.902;8.680;2024-03-07T08:15:01;27;21;
30342;PMS5003;17145;49.902;8.680;2024-03-07T08:17:28;23;19;
30342;PMS5003;17145;49.902;8.680;2024-03-07T08:19:55;21;18;
30342;PMS5003;17145;49.902;8.680;2024-03-07T08:22:23;22;19;
30342;PMS5003;17145;49.902;8.680;2024-03-07T08:24:50;37;24;
30342;PMS5003;17145;49.902;8.680;2024-03-07T08:27:17;26;23;
30342;PMS5003;17145;49.902;8.680;2024-03-07T08:29:45;23;21;
30342;PMS5003;17145;49.902;8.680;2024-03-07T08:32:12;30;22;
30342;PMS5003;17145;49.902;8.680;2024-03-07T08:34:40;24;22;
30342;PMS5003;17145;49.902;8.680;2024-03-07T08:37:07;33;22;
30342;PMS5003;17145;49.902;8.680;2024-03-07T08:39:34;32;24;
30342;PMS5003;17145;49.902;8.680;2024-03-07T08:42:02;37;23;
30342;PMS5003;17145;49.902;8.680;2024-03-07T08:44:29;30;23;
30342;PMS5003;17145;49.902;8.680;2024-03-07T08:46:57;29;24;
30342;PMS5003;17145;49.902;8.680;2024-03-07T08:49:24;24;23;
30342;PMS5003;17145;49.902;8.680;2024-03-07T08:51:51;27;23;
30342;PMS5003;17145;49.902;8.680;2024-03-07T08:54:19;24;21;
30342;PMS5003;17145;49.902;8.680;2024-03-07T08:56:46;34;26;
30342;PMS5003;17145;49.902;8.680;2024-03-07T08:59:15;40;27;
30342;PMS5003;17145;49.902;8.680;2024-03-07T09:01:42;25;21;
30342;PMS5003;17145;49.902;8.680;2024-03-07T09:04:10;19;19;
30342;PMS5003;17145;49.902;8.680;2024-03-07T09:06:37;27;22;
30342;PMS5003;17145;49.902;8.680;2024-03-07T09:09:04;22;21;
30342;PMS5003;17145;49.902;8.680;2024-03-07T09:11:33;28;21;
30342;PMS5003;17145;49.902;8.680;2024-03-07T09:14:01;31;23;
30342;PMS5003;17145;49.902;8.680;2024-03-07T09:16:28;32;27;
30342;PMS5003;17145;49.902;8.680;2024-03-07T09:18:56;33;28;
30342;PMS5003;17145;49.902;8.680;2024-03-07T09:21:24;34;29;
30342;PMS5003;17145;49.902;8.680;2024-03-07T09:23:51;47;24;
30342;PMS5003;17145;49.902;8.680;2024-03-07T09:26:19;30;28;
30342;PMS5003;17145;49.902;8.680;2024-03-07T09:28:46;39;24;
30342;PMS5003;17145;49.902;8.680;2024-03-07T09:31:14;42;26;
30342;PMS5003;17145;49.902;8.680;2024-03-07T09:33:41;37;26;
30342;PMS5003;17145;49.902;8.680;2024-03-07T09:36:09;32;27;
30342;PMS5003;17145;49.902;8.680;2024-03-07T09:38:36;33;27;
30342;PMS5003;17145;49.902;8.680;2024-03-07T09:41:03;32;25;
30342;PMS5003;17145;49.902;8.680;2024-03-07T09:43:31;41;28;
30342;PMS5003;17145;49.902;8.680;2024-03-07T09:46:01;32;26;
30342;PMS5003;17145;49.902;8.680;2024-03-07T09:48:31;32;26;
30342;PMS5003;17145;49.902;8.680;2024-03-07T09:50:58;28;24;
30342;PMS5003;17145;49.902;8.680;2024-03-07T09:53:29;43;28;
30342;PMS5003;17145;49.902;8.680;2024-03-07T09:55:56;32;29;
30342;PMS5003;17145;49.902;8.680;2024-03-07T09:58:24;33;28;
30342;PMS5003;17145;49.902;8.680;2024-03-07T10:00:55;50;32;
30342;PMS5003;17145;49.902;8.680;2024-03-07T10:03:24;39;29;
30342;PMS5003;17145;49.902;8.680;2024-03-07T10:05:56;41;26;
30342;PMS5003;17145;49.902;8.680;2024-03-07T10:08:24;37;29;
30342;PMS5003;17145;49.902;8.680;2024-03-07T10:10:52;44;28;
30342;PMS5003;17145;49.902;8.680;2024-03-07T10:13:21;29;22;
30342;PMS5003;17145;49.902;8.680;2024-03-07T10:15:48;43;27;
30342;PMS5003;17145;49.902;8.680;2024-03-07T10:18:16;42;31;
30342;PMS5003;17145;49.902;8.680;2024-03-07T10:20:43;38;27;
30342;PMS5003;17145;49.902;8.680;2024-03-07T10:23:11;45;29;
30342;PMS5003;17145;49.902;8.680;2024-03-07T10:25:39;34;23;
30342;PMS5003;17145;49.902;8.680;2024-03-07T10:28:08;38;29;
30342;PMS5003;17145;49.902;8.680;2024-03-07T10:30:39;45;28;
30342;PMS5003;17145;49.902;8.680;2024-03-07T10:33:07;38;26;
30342;PMS5003;17145;49.902;8.680;2024-03-07T10:35:34;35;28;
30342;PMS5003;17145;49.902;8.680;2024-03-07T10:38:02;35;28;
30342;PMS5003;17145;49.902;8.680;2024-03-07T10:40:30;42;32;
30342;PMS5003;17145;49.902;8.680;2024-03-07T10:42:57;51;36;
30342;PMS5003;17145;49.902;8.680;2024-03-07T10:45:27;39;28;
30342;PMS5003;17145;49.902;8.680;2024-03-07T10:47:57;52;33;
30342;PMS5003;17145;49.902;8.680;2024-03-07T10:50:30;42;27;
30342;PMS5003;17145;49.902;8.680;2024-03-07T10:53:07;36;29;
30342;PMS5003;17145;49.902;8.680;2024-03-07T10:55:44;34;28;
30342;PMS5003;17145;49.902;8.680;2024-03-07T10:58:24;43;26;
30342;PMS5003;17145;49.902;8.680;2024-03-07T11:01:00;37;31;
30342;PMS5003;17145;49.902;8.680;2024-03-07T11:03:31;37;28;
30342;PMS5003;17145;49.902;8.680;2024-03-07T11:06:01;38;32;
30342;PMS5003;17145;49.902;8.680;2024-03-07T11:08:28;34;29;
30342;PMS5003;17145;49.902;8.680;2024-03-07T11:10:56;45;31;
30342;PMS5003;17145;49.902;8.680;2024-03-07T11:13:23;52;33;
30342;PMS5003;17145;49.902;8.680;2024-03-07T11:15:51;41;36;
30342;PMS5003;17145;49.902;8.680;2024-03-07T11:18:19;43;33;
30342;PMS5003;17145;49.902;8.680;2024-03-07T11:20:46;37;31;
30342;PMS5003;17145;49.902;8.680;2024-03-07T11:25:53;42;36;
30342;PMS5003;17145;49.902;8.680;2024-03-07T11:28:27;44;37;
30342;PMS5003;17145;49.902;8.680;2024-03-07T11:33:32;52;34;
30342;PMS5003;17145;49.902;8.680;2024-03-07T11:35:59;42;33;
30342;PMS5003;17145;49.902;8.680;2024-03-07T11:38:30;48;31;
30342;PMS5003;17145;49.902;8.680;2024-03-07T11:40:59;46;34;
30342;PMS5003;17145;49.902;8.680;2024-03-07T11:43:27;37;31;
30342;PMS5003;17145;49.902;8.680;2024-03-07T11:45:54;38;32;
30342;PMS5003;17145;49.902;8.680;2024-03-07T11:48:22;42;34;
30342;PMS5003;17145;49.902;8.680;2024-03-07T11:50:49;42;32;
30342;PMS5003;17145;49.902;8.680;2024-03-07T11:53:17;39;33;
30342;PMS5003;17145;49.902;8.680;2024-03-07T11:55:44;40;33;
30342;PMS5003;17145;49.902;8.680;2024-03-07T11:58:12;48;38;
30342;PMS5003;17145;49.902;8.680;2024-03-07T12:00:40;39;32;
30342;PMS5003;17145;49.902;8.680;2024-03-07T12:03:09;42;32;
30342;PMS5003;17145;49.902;8.680;2024-03-07T12:05:36;53;37;
30342;PMS5003;17145;49.902;8.680;2024-03-07T12:08:04;37;32;
30342;PMS5003;17145;49.902;8.680;2024-03-07T12:10:32;46;33;
30342;PMS5003;17145;49.902;8.680;2024-03-07T12:13:00;41;34;
30342;PMS5003;17145;49.902;8.680;2024-03-07T12:15:30;53;38;
30342;PMS5003;17145;49.902;8.680;2024-03-07T12:17:57;44;34;
30342;PMS5003;17145;49.902;8.680;2024-03-07T12:20:26;47;36;
30342;PMS5003;17145;49.902;8.680;2024-03-07T12:22:55;36;32;
30342;PMS5003;17145;49.902;8.680;2024-03-07T12:25:23;41;34;
30342;PMS5003;17145;49.902;8.680;2024-03-07T12:27:59;45;34;
30342;PMS5003;17145;49.902;8.680;2024-03-07T12:30:27;39;34;
30342;PMS5003;17145;49.902;8.680;2024-03-07T12:32:55;50;36;
30342;PMS5003;17145;49.902;8.680;2024-03-07T12:35:22;31;28;
30342;PMS5003;17145;49.902;8.680;2024-03-07T12:37:50;45;33;
30342;PMS5003;17145;49.902;8.680;2024-03-07T12:40:19;45;37;
30342;PMS5003;17145;49.902;8.680;2024-03-07T12:42:47;46;34;
30342;PMS5003;17145;49.902;8.680;2024-03-07T12:45:15;43;33;
30342;PMS5003;17145;49.902;8.680;2024-03-07T12:47:43;43;34;
30342;PMS5003;17145;49.902;8.680;2024-03-07T12:50:10;43;32;
30342;PMS5003;17145;49.902;8.680;2024-03-07T12:52:37;43;28;
30342;PMS5003;17145;49.902;8.680;2024-03-07T12:55:06;37;34;
30342;PMS5003;17145;49.902;8.680;2024-03-07T12:57:33;41;32;
30342;PMS5003;17145;49.902;8.680;2024-03-07T13:00:01;41;33;
30342;PMS5003;17145;49.902;8.680;2024-03-07T13:02:30;42;31;
30342;PMS5003;17145;49.902;8.680;2024-03-07T13:04:57;48;31;
30342;PMS5003;17145;49.902;8.680;2024-03-07T13:07:25;37;34;
30342;PMS5003;17145;49.902;8.680;2024-03-07T13:09:52;43;36;
30342;PMS5003;17145;49.902;8.680;2024-03-07T13:12:19;47;33;
30342;PMS5003;17145;49.902;8.680;2024-03-07T13:14:47;52;32;
30342;PMS5003;17145;49.902;8.680;2024-03-07T13:17:15;52;33;
30342;PMS5003;17145;49.902;8.680;2024-03-07T13:19:42;61;33;
30342;PMS5003;17145;49.902;8.680;2024-03-07T13:22:10;58;36;
30342;PMS5003;17145;49.902;8.680;2024-03-07T13:24:37;52;34;
30342;PMS5003;17145;49.902;8.680;2024-03-07T13:27:05;46;33;
30342;PMS5003;17145;49.902;8.680;2024-03-07T13:29:33;37;31;
30342;PMS5003;17145;49.902;8.680;2024-03-07T13:32:00;35;27;
30342;PMS5003;17145;49.902;8.680;2024-03-07T13:34:27;42;33;
30342;PMS5003;17145;49.902;8.680;2024-03-07T13:36:55;28;24;
30342;PMS5003;17145;49.902;8.680;2024-03-07T13:39:23;39;28;
30342;PMS5003;17145;49.902;8.680;2024-03-07T13:41:51;32;29;
30342;PMS5003;17145;49.902;8.680;2024-03-07T13:44:18;47;35;
30342;PMS5003;17145;49.902;8.680;2024-03-07T13:46:45;42;36;
30342;PMS5003;17145;49.902;8.680;2024-03-07T13:49:13;41;32;
30342;PMS5003;17145;49.902;8.680;2024-03-07T13:51:40;39;29;
30342;PMS5003;17145;49.902;8.680;2024-03-07T13:54:08;34;29;
30342;PMS5003;17145;49.902;8.680;2024-03-07T13:56:43;38;34;
30342;PMS5003;17145;49.902;8.680;2024-03-07T13:59:30;38;28;
30342;PMS5003;17145;49.902;8.680;2024-03-07T14:02:13;42;32;
30342;PMS5003;17145;49.902;8.680;2024-03-07T14:07:33;51;37;
30342;PMS5003;17145;49.902;8.680;2024-03-07T14:10:17;36;31;
30342;PMS5003;17145;49.902;8.680;2024-03-07T14:13:09;38;34;
30342;PMS5003;17145;49.902;8.680;2024-03-07T14:18:42;42;32;
30342;PMS5003;17145;49.902;8.680;2024-03-07T14:21:26;51;34;
30342;PMS5003;17145;49.902;8.680;2024-03-07T14:24:08;51;33;
30342;PMS5003;17145;49.902;8.680;2024-03-07T14:26:56;55;37;
30342;PMS5003;17145;49.902;8.680;2024-03-07T14:29:37;43;34;
30342;PMS5003;17145;49.902;8.680;2024-03-07T14:32:10;43;33;
30342;PMS5003;17145;49.902;8.680;2024-03-07T14:34:45;46;37;
30342;PMS5003;17145;49.902;8.680;2024-03-07T14:37:21;56;38;
30342;PMS5003;17145;49.902;8.680;2024-03-07T14:39:52;51;38;
30342;PMS5003;17145;49.902;8.680;2024-03-07T14:42:27;44;31;
30342;PMS5003;17145;49.902;8.680;2024-03-07T14:44:54;38;34;
30342;PMS5003;17145;49.902;8.680;2024-03-07T14:47:22;57;36;
30342;PMS5003;17145;49.902;8.680;2024-03-07T14:49:49;47;33;
30342;PMS5003;17145;49.902;8.680;2024-03-07T14:52:17;52;36;
30342;PMS5003;17145;49.902;8.680;2024-03-07T14:54:44;37;33;
30342;PMS5003;17145;49.902;8.680;2024-03-07T14:57:12;49;36;
30342;PMS5003;17145;49.902;8.680;2024-03-07T14:59:39;45;31;
30342;PMS5003;17145;49.902;8.680;2024-03-07T15:02:06;36;31;
30342;PMS5003;17145;49.902;8.680;2024-03-07T15:04:35;42;32;
30342;PMS5003;17145;49.902;8.680;2024-03-07T15:07:03;61;41;
30342;PMS5003;17145;49.902;8.680;2024-03-07T15:09:31;62;40;
30342;PMS5003;17145;49.902;8.680;2024-03-07T15:11:58;38;36;
30342;PMS5003;17145;49.902;8.680;2024-03-07T15:14:26;63;37;
30342;PMS5003;17145;49.902;8.680;2024-03-07T15:16:53;43;36;
30342;PMS5003;17145;49.902;8.680;2024-03-07T15:19:21;39;34;
30342;PMS5003;17145;49.902;8.680;2024-03-07T15:21:48;48;37;
30342;PMS5003;17145;49.902;8.680;2024-03-07T15:24:16;51;37;
30342;PMS5003;17145;49.902;8.680;2024-03-07T15:26:43;48;36;
30342;PMS5003;17145;49.902;8.680;2024-03-07T15:29:11;56;38;
30342;PMS5003;17145;49.902;8.680;2024-03-07T15:31:39;46;37;
30342;PMS5003;17145;49.902;8.680;2024-03-07T15:34:07;55;40;
30342;PMS5003;17145;49.902;8.680;2024-03-07T15:36:34;45;35;
30342;PMS5003;17145;49.902;8.680;2024-03-07T15:39:01;49;36;
30342;PMS5003;17145;49.902;8.680;2024-03-07T15:41:29;53;35;
30342;PMS5003;17145;49.902;8.680;2024-03-07T15:43:56;58;45;
30342;PMS5003;17145;49.902;8.680;2024-03-07T15:46:24;55;36;
30342;PMS5003;17145;49.902;8.680;2024-03-07T15:48:51;56;40;
30342;PMS5003;17145;49.902;8.680;2024-03-07T15:51:18;51;37;
30342;PMS5003;17145;49.902;8.680;2024-03-07T15:53:48;58;44;
30342;PMS5003;17145;49.902;8.680;2024-03-07T15:56:15;54;36;
30342;PMS5003;17145;49.902;8.680;2024-03-07T15:58:42;46;39;
30342;PMS5003;17145;49.902;8.680;2024-03-07T16:01:10;58;37;
30342;PMS5003;17145;49.902;8.680;2024-03-07T16:03:37;58;42;
30342;PMS5003;17145;49.902;8.680;2024-03-07T16:06:05;45;36;
30342;PMS5003;17145;49.902;8.680;2024-03-07T16:08:32;63;42;
30342;PMS5003;17145;49.902;8.680;2024-03-07T16:11:00;62;38;
30342;PMS5003;17145;49.902;8.680;2024-03-07T16:13:27;51;42;
30342;PMS5003;17145;49.902;8.680;2024-03-07T16:15:54;62;41;
30342;PMS5003;17145;49.902;8.680;2024-03-07T16:18:22;57;38;
30342;PMS5003;17145;49.902;8.680;2024-03-07T16:20:49;52;38;
30342;PMS5003;17145;49.902;8.680;2024-03-07T16:23:17;56;34;
30342;PMS5003;17145;49.902;8.680;2024-03-07T16:25:44;56;35;
30342;PMS5003;17145;49.902;8.680;2024-03-07T16:28:12;46;32;
30342;PMS5003;17145;49.902;8.680;2024-03-07T16:30:39;41;36;
30342;PMS5003;17145;49.902;8.680;2024-03-07T16:33:07;46;36;
30342;PMS5003;17145;49.902;8.680;2024-03-07T16:35:34;53;34;